Time;durP1;ratioP1;P1;durP2;ratioP2;P2;SDS_P1;SDS_P2;PMS_P1;PMS_P2;Temp;Humidity;BMP_temperature;BMP_pressure;BME280_temperature;BME280_humidity;BME280_pressure;Samples;Min_cycle;Max_cycle;Signal;HPM_P1;HPM_P2
2023/03/17 00:01:34;;;;;;;6.43;2.93;;;;;;;-145.18;100.00;47613.75;5032072;28;20044;-68
2023/03/17 00:04:00;;;;;;;9.83;3.70;;;;;;;-145.18;100.00;47617.66;5031407;28;20270;-69
2023/03/17 00:06:32;;;;;;;7.93;3.30;;;;;;;-145.18;100.00;47607.88;5011714;28;20387;-68
2023/03/17 00:08:58;;;;;;;7.43;3.27;;;;;;;-145.18;100.00;47623.50;5011792;28;20279;-69
2023/03/17 00:11:26;;;;;;;6.90;3.03;;;;;;;-145.18;100.00;47584.44;5011828;28;20263;-69
2023/03/17 00:13:51;;;;;;;8.57;3.57;;;;;;;-145.18;100.00;47617.66;5016389;28;20045;-69
2023/03/17 00:16:23;;;;;;;4.70;2.90;;;;;;;-145.18;100.00;47613.75;5011171;28;20272;-68
2023/03/17 00:18:50;;;;;;;8.87;3.33;;;;;;;-145.18;100.00;47621.56;5012085;28;20112;-69
2023/03/17 00:21:22;;;;;;;5.13;2.77;;;;;;;-145.18;100.00;47617.66;5011443;28;20287;-69
2023/03/17 00:23:50;;;;;;;7.43;3.30;;;;;;;-145.18;100.00;47582.47;5011971;28;20646;-69
2023/03/17 00:26:16;;;;;;;5.63;3.03;;;;;;;-145.18;100.00;47592.25;5011332;28;20275;-69
2023/03/17 00:28:42;;;;;;;9.47;3.03;;;;;;;-145.18;100.00;47576.63;5012037;28;20350;-69
2023/03/17 00:31:23;;;;;;;5.63;2.90;;;;;;;-145.18;100.00;47551.22;5011310;28;20034;-69
2023/03/17 00:33:51;;;;;;;5.57;3.17;;;;;;;-145.18;100.00;47551.22;5028537;28;20128;-68
2023/03/17 00:36:20;;;;;;;10.73;3.17;;;;;;;-145.18;100.00;47525.81;5031034;28;20735;-69
2023/03/17 00:38:46;;;;;;;7.03;3.03;;;;;;;-145.18;100.00;47488.69;5029264;28;20290;-69
2023/03/17 00:41:12;;;;;;;6.97;3.60;;;;;;;-145.18;100.00;47484.78;5030503;28;20313;-68
2023/03/17 00:43:38;;;;;;;5.20;2.93;;;;;;;-145.18;100.00;47469.16;5030653;28;20073;-68
2023/03/17 00:46:21;;;;;;;5.73;2.73;;;;;;;-145.18;100.00;47437.91;5016498;28;20334;-68
2023/03/17 00:48:47;;;;;;;6.63;3.00;;;;;;;-145.18;100.00;47455.47;5011257;28;20786;-69
2023/03/17 00:51:14;;;;;;;9.27;3.23;;;;;;;-145.18;100.00;47418.38;5010819;28;20294;-68
2023/03/17 00:53:40;;;;;;;7.57;3.60;;;;;;;-145.18;100.00;47418.38;5010627;28;20383;-68
2023/03/17 00:56:17;;;;;;;6.47;2.83;;;;;;;-145.18;100.00;47451.56;5030845;28;20818;-68
2023/03/17 00:58:43;;;;;;;6.63;3.17;;;;;;;-145.18;100.00;47441.81;5022458;28;20037;-68
2023/03/17 01:01:09;;;;;;;5.37;3.00;;;;;;;-145.18;100.00;47449.63;5021453;28;20282;-69
2023/03/17 01:03:35;;;;;;;5.70;3.23;;;;;;;-145.18;100.00;47463.31;5013797;28;20037;-68
2023/03/17 01:06:03;;;;;;;7.20;3.97;;;;;;;-145.18;100.00;47408.59;5028537;28;20746;-68
2023/03/17 01:08:30;;;;;;;6.37;3.07;;;;;;;-145.18;100.00;47371.47;5033824;28;20040;-69
2023/03/17 01:10:56;;;;;;;7.97;3.20;;;;;;;-145.18;100.00;47299.19;5046459;28;20289;-69
2023/03/17 01:13:22;;;;;;;5.47;2.97;;;;;;;-145.18;100.00;47207.38;5050404;28;20687;-69
2023/03/17 01:15:49;;;;;;;6.07;3.03;;;;;;;-145.18;100.00;47195.66;5050603;28;20289;-69
2023/03/17 01:18:17;;;;;;;6.47;2.90;;;;;;;-145.18;100.00;47150.72;5048032;28;20288;-69
2023/03/17 01:20:43;;;;;;;5.20;2.80;;;;;;;-145.18;100.00;47213.22;5030395;28;20283;-69
2023/03/17 01:23:10;;;;;;;7.60;2.93;;;;;;;-145.18;100.00;47140.94;5027433;28;20654;-69
2023/03/17 01:25:37;;;;;;;6.63;2.80;;;;;;;-145.18;100.00;47125.31;5050283;28;20047;-69
2023/03/17 01:28:04;;;;;;;5.70;3.33;;;;;;;-145.18;100.00;47066.72;5049307;28;20296;-69
2023/03/17 01:30:38;;;;;;;5.17;2.97;;;;;;;-145.18;100.00;47090.16;5049935;28;20714;-69
2023/03/17 01:33:05;;;;;;;7.53;3.10;;;;;;;-145.18;100.00;47049.13;5049653;28;20321;-69
2023/03/17 01:35:31;;;;;;;6.53;2.70;;;;;;;-145.18;100.00;47008.09;5050132;28;20623;-69
2023/03/17 01:37:57;;;;;;;5.80;3.30;;;;;;;-145.18;100.00;46994.44;5034455;28;20703;-68
2023/03/17 01:40:27;;;;;;;7.20;3.40;;;;;;;-145.18;100.00;46988.56;5030405;28;20306;-69
2023/03/17 01:43:15;;;;;;;5.07;3.50;;;;;;;-145.18;100.00;46972.94;5029909;28;20274;-69
2023/03/17 01:46:20;;;;;;;5.33;3.13;;;;;;;-145.18;100.00;47006.16;5030098;28;20262;-68
2023/03/17 01:48:54;;;;;;;5.70;3.23;;;;;;;-145.18;100.00;46984.66;5029936;28;20266;-69
2023/03/17 01:51:30;;;;;;;6.20;2.90;;;;;;;-145.18;100.00;46992.47;5029981;28;20267;-69
2023/03/17 01:54:00;;;;;;;6.80;3.03;;;;;;;-145.18;100.00;46984.66;5030265;28;20290;-68
2023/03/17 01:56:26;;;;;;;6.57;3.40;;;;;;;-145.18;100.00;46971.00;5029956;28;20263;-69
2023/03/17 01:58:53;;;;;;;6.27;3.43;;;;;;;-145.18;100.00;46969.03;5029800;28;20669;-69
2023/03/17 02:03:50;;;;;;;6.07;3.30;;;;;;;-145.18;100.00;46937.78;5003769;23;20296;-68
2023/03/17 02:06:16;;;;;;;6.50;3.17;;;;;;;-145.18;100.00;46955.34;5001387;28;20268;-68
2023/03/17 02:08:43;;;;;;;6.37;3.23;;;;;;;-145.18;100.00;46929.97;5009877;28;20268;-68
2023/03/17 02:11:09;;;;;;;4.77;2.90;;;;;;;-145.18;100.00;46914.34;5010473;28;20314;-68
2023/03/17 02:13:35;;;;;;;5.87;2.90;;;;;;;-145.18;100.00;46920.19;5000880;28;20288;-68
2023/03/17 02:16:01;;;;;;;4.97;3.07;;;;;;;-145.18;100.00;46910.44;4990563;28;20265;-68
2023/03/17 02:18:26;;;;;;;7.73;3.30;;;;;;;-145.18;100.00;46941.69;4990347;28;20260;-68
2023/03/17 02:21:27;;;;;;;5.10;3.50;;;;;;;-145.18;100.00;46912.38;4990496;28;20126;-68
2023/03/17 02:23:53;;;;;;;5.37;3.00;;;;;;;-145.18;100.00;46914.34;4991190;28;20044;-68
2023/03/17 02:26:22;;;;;;;4.47;2.77;;;;;;;-145.18;100.00;46904.56;4990619;28;20268;-68
2023/03/17 02:28:47;;;;;;;4.70;2.60;;;;;;;-145.18;100.00;46894.81;4996176;28;20037;-68
2023/03/17 02:31:13;;;;;;;6.53;3.13;;;;;;;-145.18;100.00;46906.53;5010435;28;20263;-68
2023/03/17 02:33:38;;;;;;;5.60;3.27;;;;;;;-145.18;100.00;46914.34;4992272;28;20383;-68
2023/03/17 02:36:04;;;;;;;6.47;3.07;;;;;;;-145.18;100.00;46900.66;5000914;28;20046;-68
2023/03/17 02:38:29;;;;;;;6.03;3.40;;;;;;;-145.18;100.00;46898.72;4990380;28;20077;-68
2023/03/17 02:40:55;;;;;;;4.90;3.03;;;;;;;-145.18;100.00;46892.84;4988112;28;20050;-68
2023/03/17 02:43:21;;;;;;;7.77;2.97;;;;;;;-145.18;100.00;46894.81;4993720;28;20081;-68
2023/03/17 02:45:46;;;;;;;5.80;2.77;;;;;;;-145.18;100.00;46912.38;4994152;28;20510;-68
2023/03/17 02:48:12;;;;;;;7.00;3.37;;;;;;;-145.18;100.00;46926.06;4994023;28;20037;-68
2023/03/17 02:50:37;;;;;;;7.40;2.97;;;;;;;-145.18;100.00;46914.34;4997932;28;20776;-68
2023/03/17 02:53:02;;;;;;;6.13;3.20;;;;;;;-145.18;100.00;46900.66;4993874;28;20053;-68
2023/03/17 02:55:28;;;;;;;5.97;3.23;;;;;;;-145.18;100.00;46949.50;5013656;28;20045;-68
2023/03/17 02:57:53;;;;;;;5.53;3.40;;;;;;;-145.18;100.00;46976.84;5013177;28;20026;-69
2023/03/17 03:00:20;;;;;;;5.90;2.60;;;;;;;-145.18;100.00;46953.41;5013500;28;20034;-68
2023/03/17 03:02:45;;;;;;;5.73;2.73;;;;;;;-145.18;100.00;46945.59;4978140;28;20066;-68
2023/03/17 03:05:11;;;;;;;6.97;3.30;;;;;;;-145.18;100.00;46969.03;4974489;28;20272;-68
2023/03/17 03:07:36;;;;;;;5.07;2.93;;;;;;;-145.18;100.00;46926.06;4974304;28;20368;-68
2023/03/17 03:10:02;;;;;;;4.97;3.10;;;;;;;-145.18;100.00;46947.53;4973902;28;20026;-68
2023/03/17 03:12:28;;;;;;;6.40;3.73;;;;;;;-145.18;100.00;46916.28;4980173;28;20077;-68
2023/03/17 03:14:53;;;;;;;6.20;2.90;;;;;;;-145.18;100.00;46910.44;4993546;28;20291;-68
2023/03/17 03:17:20;;;;;;;4.83;3.00;;;;;;;-145.18;100.00;46894.81;4993530;28;20073;-68
2023/03/17 03:19:46;;;;;;;4.67;2.93;;;;;;;-145.18;100.00;46883.09;4993087;28;20034;-68
2023/03/17 03:22:11;;;;;;;6.80;2.90;;;;;;;-145.18;100.00;46887.00;4992916;28;20291;-68
2023/03/17 03:24:37;;;;;;;6.53;2.83;;;;;;;-145.18;100.00;46881.13;4976188;28;20651;-68
2023/03/17 03:27:02;;;;;;;6.77;3.30;;;;;;;-145.18;100.00;46867.44;4975588;28;20038;-68
2023/03/17 03:29:28;;;;;;;8.13;3.30;;;;;;;-145.18;100.00;46867.44;4993493;28;20063;-68
2023/03/17 03:31:53;;;;;;;4.23;2.80;;;;;;;-145.18;100.00;46849.88;4989581;28;20058;-68
2023/03/17 03:34:18;;;;;;;4.50;2.87;;;;;;;-145.18;100.00;46861.59;4973703;28;20034;-68
2023/03/17 03:36:44;;;;;;;8.97;2.73;;;;;;;-145.18;100.00;46832.28;4973948;28;20122;-68
2023/03/17 03:39:10;;;;;;;6.87;3.27;;;;;;;-145.18;100.00;46838.16;4973616;28;20027;-68
2023/03/17 03:41:35;;;;;;;6.07;3.10;;;;;;;-145.18;100.00;46828.38;4957051;28;20047;-70
2023/03/17 03:44:01;;;;;;;5.17;2.93;;;;;;;-145.18;100.00;46816.66;4992359;28;20086;-68
2023/03/17 03:46:26;;;;;;;5.60;3.00;;;;;;;-145.18;100.00;46840.09;4993223;28;20066;-68
2023/03/17 03:48:52;;;;;;;6.13;3.20;;;;;;;-145.18;100.00;46810.81;4992704;28;20043;-68
2023/03/17 03:51:18;;;;;;;7.13;2.50;;;;;;;-145.18;100.00;46816.66;4991947;28;20399;-68
2023/03/17 03:53:43;;;;;;;7.53;3.07;;;;;;;-145.18;100.00;46820.56;4973414;28;20295;-68
2023/03/17 03:56:09;;;;;;;4.97;3.10;;;;;;;-145.18;100.00;46836.19;4973394;28;20031;-68
2023/03/17 03:58:35;;;;;;;5.17;2.93;;;;;;;-145.18;100.00;46836.19;4973184;28;20027;-68
2023/03/17 04:01:04;;;;;;;6.53;3.23;;;;;;;-145.18;100.00;46791.28;4976528;28;20034;-68
2023/03/17 04:03:30;;;;;;;4.53;3.10;;;;;;;-145.18;100.00;46804.94;4973167;28;20185;-68
2023/03/17 04:05:55;;;;;;;6.03;3.20;;;;;;;-145.18;100.00;46810.81;4957229;28;20360;-68
2023/03/17 04:08:21;;;;;;;6.90;3.13;;;;;;;-145.18;100.00;46779.56;4974519;28;20086;-68
2023/03/17 04:10:46;;;;;;;6.10;3.40;;;;;;;-145.18;100.00;46791.28;4973891;28;20038;-68
2023/03/17 04:13:13;;;;;;;6.33;3.20;;;;;;;-145.18;100.00;46777.59;4973029;28;20383;-68
2023/03/17 04:15:38;;;;;;;6.43;3.30;;;;;;;-145.18;100.00;46771.75;4973157;28;20045;-68
2023/03/17 04:18:04;;;;;;;7.40;3.47;;;;;;;-145.18;100.00;46763.91;4972674;28;20265;-68
2023/03/17 04:20:29;;;;;;;6.67;3.13;;;;;;;-145.18;100.00;46791.28;4973140;28;20031;-69
2023/03/17 04:22:55;;;;;;;5.17;2.87;;;;;;;-145.18;100.00;46756.09;4972362;28;20034;-68
2023/03/17 04:25:20;;;;;;;4.47;2.60;;;;;;;-145.18;100.00;46769.78;4955853;28;20399;-68
2023/03/17 04:27:45;;;;;;;5.63;2.90;;;;;;;-145.18;100.00;46793.22;4972956;28;20093;-68
2023/03/17 04:30:12;;;;;;;5.47;2.67;;;;;;;-145.18;100.00;46795.19;4972717;28;20515;-68
2023/03/17 04:32:38;;;;;;;7.87;2.80;;;;;;;-145.18;100.00;46791.28;4972522;28;20491;-68
2023/03/17 04:35:04;;;;;;;4.57;2.57;;;;;;;-145.18;100.00;46785.41;4972569;28;20347;-68
2023/03/17 04:37:29;;;;;;;6.10;3.17;;;;;;;-145.18;100.00;46795.19;4972638;28;20035;-68
2023/03/17 04:39:55;;;;;;;4.30;2.63;;;;;;;-145.18;100.00;46804.94;4972566;28;20070;-69
2023/03/17 04:42:20;;;;;;;5.60;2.77;;;;;;;-145.18;100.00;46803.00;4972555;28;20423;-68
2023/03/17 04:44:45;;;;;;;4.70;2.67;;;;;;;-145.18;100.00;46787.38;4972255;28;20093;-68
2023/03/17 04:47:11;;;;;;;6.27;2.60;;;;;;;-145.18;100.00;46793.22;4978601;28;20031;-68
2023/03/17 04:49:36;;;;;;;5.40;3.00;;;;;;;-145.18;100.00;46783.47;4992398;28;20042;-68
2023/03/17 04:52:02;;;;;;;6.00;3.17;;;;;;;-145.18;100.00;46777.59;4991527;28;20031;-68
2023/03/17 04:54:27;;;;;;;4.17;2.63;;;;;;;-145.18;100.00;46785.41;4991599;28;20034;-68
2023/03/17 04:56:53;;;;;;;9.40;2.73;;;;;;;-145.18;100.00;46791.28;4991550;28;20121;-68
2023/03/17 04:59:18;;;;;;;4.53;2.67;;;;;;;-145.18;100.00;46793.22;4974237;28;20037;-68
2023/03/17 05:01:44;;;;;;;3.83;2.90;;;;;;;-145.18;100.00;46783.47;4989151;28;20061;-68
2023/03/17 05:04:09;;;;;;;4.50;3.33;;;;;;;-145.18;100.00;46789.31;4971444;28;20484;-68
2023/03/17 05:06:36;;;;;;;4.97;2.80;;;;;;;-145.18;100.00;46767.84;4972443;28;20027;-68
2023/03/17 05:09:01;;;;;;;5.60;3.10;;;;;;;-145.18;100.00;46760.00;4971772;28;20483;-68
2023/03/17 05:11:26;;;;;;;4.73;2.70;;;;;;;-145.18;100.00;46761.97;4972088;28;20261;-68
2023/03/17 05:13:52;;;;;;;6.90;3.13;;;;;;;-145.18;100.00;46765.88;4975502;28;20070;-68
2023/03/17 05:16:17;;;;;;;5.33;2.50;;;;;;;-145.18;100.00;46765.88;4972227;28;20037;-69
2023/03/17 05:18:43;;;;;;;5.37;2.70;;;;;;;-145.18;100.00;46777.59;4971946;28;20027;-68
2023/03/17 05:21:09;;;;;;;4.47;2.43;;;;;;;-145.18;100.00;46761.97;4976159;28;20030;-68
2023/03/17 05:23:35;;;;;;;4.73;2.77;;;;;;;-145.18;100.00;46793.22;4991884;28;20041;-68
2023/03/17 05:26:01;;;;;;;6.13;2.87;;;;;;;-145.18;100.00;46777.59;4990181;28;20018;-68
2023/03/17 05:28:26;;;;;;;5.93;2.60;;;;;;;-145.18;100.00;46783.47;4990413;28;20034;-68
2023/03/17 05:30:52;;;;;;;4.93;2.87;;;;;;;-145.18;100.00;46758.06;4990665;28;20040;-68
2023/03/17 05:33:19;;;;;;;5.73;3.10;;;;;;;-145.18;100.00;46750.25;4988747;28;20471;-68
2023/03/17 05:35:45;;;;;;;7.37;3.20;;;;;;;-145.18;100.00;46748.28;5002550;28;20026;-68
2023/03/17 05:38:11;;;;;;;10.37;3.93;;;;;;;-145.18;100.00;46756.09;4995394;28;20280;-68
2023/03/17 05:40:37;;;;;;;6.43;3.80;;;;;;;-145.18;100.00;46748.28;4990867;28;20276;-68
2023/03/17 05:43:04;;;;;;;8.10;3.83;;;;;;;-145.18;100.00;46734.63;4990033;28;20615;-68
2023/03/17 05:45:30;;;;;;;5.90;3.47;;;;;;;-145.18;100.00;46738.53;4996185;28;20050;-68
2023/03/17 05:47:56;;;;;;;6.97;3.13;;;;;;;-145.18;100.00;46754.16;4990722;28;20260;-68
2023/03/17 05:50:22;;;;;;;6.23;3.20;;;;;;;-145.18;100.00;46732.66;4991038;28;20026;-68
2023/03/17 05:52:47;;;;;;;8.50;3.17;;;;;;;-145.18;100.00;46720.94;4971903;28;20276;-68
2023/03/17 05:55:13;;;;;;;6.17;3.00;;;;;;;-145.18;100.00;46738.53;4971652;28;20296;-68
2023/03/17 05:57:38;;;;;;;6.33;2.80;;;;;;;-145.18;100.00;46732.66;4971043;28;20579;-68
2023/03/17 06:00:04;;;;;;;4.23;2.27;;;;;;;-145.18;100.00;46730.72;4971191;28;20031;-70
2023/03/17 06:02:30;;;;;;;6.77;2.80;;;;;;;-145.18;100.00;46730.72;4987059;28;20092;-69
2023/03/17 06:04:55;;;;;;;5.73;2.50;;;;;;;-145.18;100.00;46720.94;4990418;28;20311;-69
2023/03/17 06:07:21;;;;;;;4.97;2.80;;;;;;;-145.18;100.00;46685.78;4990671;28;20038;-69
2023/03/17 06:09:46;;;;;;;5.60;2.40;;;;;;;-145.18;100.00;46699.47;4990644;28;20085;-69
2023/03/17 06:12:11;;;;;;;4.33;2.40;;;;;;;-145.18;100.00;46695.56;4990097;28;20035;-69
2023/03/17 06:14:37;;;;;;;9.07;3.20;;;;;;;-145.18;100.00;46711.19;4992430;28;20042;-69
2023/03/17 06:17:02;;;;;;;5.33;2.83;;;;;;;-145.18;100.00;46697.50;4994496;28;20037;-69
2023/03/17 06:19:28;;;;;;;13.87;2.73;;;;;;;-145.18;100.00;46683.84;4994391;28;20169;-69
2023/03/17 06:21:53;;;;;;;4.17;2.70;;;;;;;-145.18;100.00;46701.41;4980796;28;20092;-69
2023/03/17 06:24:19;;;;;;;4.67;2.40;;;;;;;-145.18;100.00;46711.19;4987941;28;20081;-69
2023/03/17 06:26:44;;;;;;;6.97;2.70;;;;;;;-145.18;100.00;46711.19;4973265;28;20022;-69
2023/03/17 06:29:11;;;;;;;5.97;2.40;;;;;;;-145.18;100.00;46738.53;4983010;28;20030;-69
2023/03/17 06:31:37;;;;;;;6.37;2.57;;;;;;;-145.18;100.00;46740.47;4994210;28;20514;-69
2023/03/17 06:34:03;;;;;;;4.67;2.50;;;;;;;-145.18;100.00;46722.91;4990781;28;20367;-69
2023/03/17 06:36:31;;;;;;;5.43;2.23;;;;;;;-145.18;100.00;46722.91;4993481;28;20264;-69
2023/03/17 06:38:56;;;;;;;3.77;2.00;;;;;;;-145.18;100.00;46722.91;4975740;28;20784;-69
2023/03/17 06:41:22;;;;;;;6.07;2.73;;;;;;;-145.18;100.00;46722.91;4979462;28;20299;-69
2023/03/17 06:43:47;;;;;;;5.73;2.37;;;;;;;-145.18;100.00;46734.63;4993682;28;20086;-69
2023/03/17 06:46:13;;;;;;;7.63;2.57;;;;;;;-145.18;100.00;46744.38;4990979;28;20087;-69
2023/03/17 06:48:38;;;;;;;5.60;2.50;;;;;;;-145.18;100.00;46742.44;4987400;28;20715;-69
2023/03/17 06:51:04;;;;;;;7.93;2.23;;;;;;;-145.18;100.00;46734.63;4992224;28;20034;-69
2023/03/17 06:53:30;;;;;;;4.23;2.30;;;;;;;-145.18;100.00;46734.63;4992347;28;20027;-69
2023/03/17 06:55:56;;;;;;;5.03;2.87;;;;;;;-145.18;100.00;46752.19;4992375;28;20351;-69
2023/03/17 06:58:21;;;;;;;3.67;2.20;;;;;;;-145.18;100.00;46769.78;4991717;28;20113;-69
2023/03/17 07:00:47;;;;;;;6.50;2.93;;;;;;;-145.18;100.00;46803.00;4992096;28;20029;-69
2023/03/17 07:03:16;;;;;;;4.67;2.23;;;;;;;-145.18;100.00;46789.31;4992157;28;20042;-70
2023/03/17 07:05:41;;;;;;;4.47;2.67;;;;;;;-145.18;100.00;46785.41;4972877;28;20450;-70
2023/03/17 07:08:07;;;;;;;3.93;2.57;;;;;;;-145.18;100.00;46789.31;4990724;28;20285;-69
2023/03/17 07:10:34;;;;;;;4.80;2.40;;;;;;;-145.18;100.00;46801.03;4992737;28;20030;-69
2023/03/17 07:13:01;;;;;;;4.70;2.73;;;;;;;-145.18;100.00;46791.28;4993138;28;20061;-69
2023/03/17 07:15:26;;;;;;;8.77;2.60;;;;;;;-145.18;100.00;46824.47;4993678;28;20303;-70
2023/03/17 07:17:53;;;;;;;7.13;3.13;;;;;;;-145.18;100.00;46844.00;4992528;28;20288;-71
2023/03/17 07:20:18;;;;;;;5.90;3.17;;;;;;;-145.18;100.00;46845.97;4986293;28;20041;-71
2023/03/17 07:22:44;;;;;;;7.83;3.20;;;;;;;-145.18;100.00;46836.19;4973572;28;20281;-70
2023/03/17 07:25:09;;;;;;;7.77;2.37;;;;;;;-145.18;100.00;46855.72;4973331;28;20542;-69
2023/03/17 07:27:35;;;;;;;6.90;2.80;;;;;;;-145.18;100.00;46863.53;4973178;28;20038;-71
2023/03/17 07:30:03;;;;;;;5.47;2.63;;;;;;;-145.18;100.00;46836.19;4974586;28;20030;-68
2023/03/17 07:32:29;;;;;;;6.30;2.80;;;;;;;-145.18;100.00;46883.09;4983844;28;20039;-71
2023/03/17 07:34:55;;;;;;;8.17;2.73;;;;;;;-145.18;100.00;46890.91;4973002;28;20791;-68
2023/03/17 07:37:21;;;;;;;8.53;2.67;;;;;;;-145.18;100.00;46877.22;4973806;28;20275;-71
2023/03/17 07:39:47;;;;;;;9.03;2.83;;;;;;;-145.18;100.00;46838.16;4973444;28;20645;-69
2023/03/17 07:42:14;;;;;;;7.23;2.70;;;;;;;-145.18;100.00;46867.44;4973376;28;20062;-69
2023/03/17 07:44:40;;;;;;;4.83;2.47;;;;;;;-145.18;100.00;46851.81;4972724;28;20518;-69
2023/03/17 07:47:06;;;;;;;6.40;3.10;;;;;;;-145.18;100.00;46849.88;4973168;28;20279;-70
2023/03/17 07:49:31;;;;;;;7.67;3.27;;;;;;;-145.18;100.00;46814.72;4987042;28;20284;-70
2023/03/17 07:51:56;;;;;;;6.43;3.10;;;;;;;-145.18;100.00;46838.16;4990976;28;20038;-70
2023/03/17 07:54:23;;;;;;;7.30;2.90;;;;;;;-145.18;100.00;46828.38;4991691;28;20046;-69
2023/03/17 07:56:48;;;;;;;11.10;3.17;;;;;;;-145.18;100.00;46840.09;4992430;28;20388;-69
2023/03/17 07:59:14;;;;;;;6.87;3.03;;;;;;;-145.18;100.00;46867.44;4992645;28;20296;-70
2023/03/17 08:01:39;;;;;;;6.63;2.77;;;;;;;-145.18;100.00;46814.72;4975190;28;20434;-69
2023/03/17 08:04:06;;;;;;;5.97;3.00;;;;;;;-145.18;100.00;46820.56;4992175;28;20058;-70
2023/03/17 08:06:31;;;;;;;9.10;3.00;;;;;;;-145.18;100.00;46832.28;4988656;28;20077;-69
2023/03/17 08:08:57;;;;;;;7.20;2.83;;;;;;;-145.18;100.00;46836.19;4972807;28;20758;-69
2023/03/17 08:11:22;;;;;;;7.10;3.20;;;;;;;-145.18;100.00;46869.41;4973025;28;20101;-70
2023/03/17 08:13:48;;;;;;;5.87;2.90;;;;;;;-145.18;100.00;47002.25;4972776;28;20038;-70
2023/03/17 08:16:15;;;;;;;7.60;3.10;;;;;;;-145.18;100.00;47178.06;4985044;28;20038;-69
2023/03/17 08:18:41;;;;;;;6.53;2.80;;;;;;;-145.18;100.00;47422.28;4991887;28;20466;-70
2023/03/17 08:21:06;;;;;;;5.67;2.97;;;;;;;-145.18;100.00;47492.59;4974560;28;20324;-70
2023/03/17 08:23:32;;;;;;;5.90;3.13;;;;;;;-145.18;100.00;47502.38;4992203;28;20037;-70
2023/03/17 08:26:02;;;;;;;11.23;3.50;;;;;;;-145.18;100.00;47518.00;4992089;28;20041;-70
2023/03/17 08:28:28;;;;;;;7.70;3.40;;;;;;;-145.18;100.00;47518.00;4992175;28;20514;-69
2023/03/17 08:30:53;;;;;;;5.87;3.00;;;;;;;-145.18;100.00;47514.09;4987670;28;20288;-70
2023/03/17 08:33:19;;;;;;;9.57;3.47;;;;;;;-145.18;100.00;47484.78;4987972;28;20484;-70
2023/03/17 08:35:45;;;;;;;5.43;3.00;;;;;;;-145.18;100.00;47451.56;4991920;28;20483;-70
2023/03/17 08:38:11;;;;;;;4.87;2.93;;;;;;;-145.18;100.00;47437.91;4991774;28;20407;-70
2023/03/17 08:40:37;;;;;;;8.87;3.03;;;;;;;-145.18;100.00;47430.09;4992019;28;20355;-70
2023/03/17 08:43:03;;;;;;;4.60;2.77;;;;;;;-145.18;100.00;47418.38;4991002;28;20070;-70
2023/03/17 08:45:29;;;;;;;5.03;2.47;;;;;;;-145.18;100.00;47420.31;4991955;28;20303;-70
2023/03/17 08:47:54;;;;;;;5.27;2.40;;;;;;;-145.18;100.00;47420.31;4987360;28;20030;-70
2023/03/17 08:50:22;;;;;;;5.80;2.43;;;;;;;-145.18;100.00;47389.06;4991016;28;20470;-70
2023/03/17 08:52:48;;;;;;;7.00;2.40;;;;;;;-145.18;100.00;47402.72;4975245;28;20038;-70
2023/03/17 08:55:15;;;;;;;3.77;2.10;;;;;;;-145.18;100.00;47387.09;4972142;28;20289;-70
2023/03/17 08:57:41;;;;;;;4.43;2.43;;;;;;;-145.18;100.00;47396.88;4987690;28;20286;-70
2023/03/17 09:00:10;;;;;;;3.77;2.27;;;;;;;-145.18;100.00;47398.81;4975561;28;20288;-71
2023/03/17 09:02:42;;;;;;;6.23;2.60;;;;;;;-145.18;100.00;47398.81;4971795;28;20058;-70
2023/03/17 09:05:09;;;;;;;6.83;2.57;;;;;;;-145.18;100.00;47379.28;4971491;28;20300;-71
2023/03/17 09:07:35;;;;;;;7.57;2.83;;;;;;;-145.18;100.00;47379.28;4981590;28;20275;-70
2023/03/17 09:10:03;;;;;;;4.80;2.40;;;;;;;-145.18;100.00;47369.53;4973582;28;20038;-70
2023/03/17 09:12:29;;;;;;;7.27;2.70;;;;;;;-145.18;100.00;47361.72;4991236;28;20022;-71
2023/03/17 09:14:55;;;;;;;5.77;2.67;;;;;;;-145.18;100.00;47383.19;4989990;28;20049;-70
2023/03/17 09:17:22;;;;;;;6.33;3.00;;;;;;;-145.18;100.00;47375.38;4989960;28;20395;-71
2023/03/17 09:19:47;;;;;;;7.87;2.87;;;;;;;-145.18;100.00;47371.47;4971539;28;20035;-70
2023/03/17 09:22:14;;;;;;;6.97;2.90;;;;;;;-145.18;100.00;47342.16;4988079;28;20500;-71
2023/03/17 09:24:40;;;;;;;6.67;2.97;;;;;;;-145.18;100.00;47349.97;4990617;28;20030;-71
2023/03/17 09:27:06;;;;;;;6.20;2.70;;;;;;;-145.18;100.00;47361.72;4990441;28;20439;-71
2023/03/17 09:29:32;;;;;;;6.73;2.80;;;;;;;-145.18;100.00;47355.84;4990713;28;20045;-71
2023/03/17 09:31:58;;;;;;;5.97;2.70;;;;;;;-145.18;100.00;47348.03;4990690;28;20542;-70
2023/03/17 09:34:24;;;;;;;5.37;3.03;;;;;;;-145.18;100.00;47344.13;4990709;28;20062;-71
2023/03/17 09:36:51;;;;;;;5.40;2.87;;;;;;;-145.18;100.00;47355.84;4981203;28;20043;-70
2023/03/17 09:39:17;;;;;;;6.93;3.00;;;;;;;-145.18;100.00;47344.13;4977110;28;20051;-71
2023/03/17 09:41:51;;;;;;;7.00;2.87;;;;;;;-145.18;100.00;47363.66;4970241;28;20039;-71
2023/03/17 09:45:05;;;;;;;5.03;2.57;;;;;;;-145.18;100.00;47357.78;4971201;28;20026;-71
2023/03/17 09:47:51;;;;;;;9.13;3.30;;;;;;;-145.18;100.00;47348.03;4962182;28;20046;-71
2023/03/17 09:50:42;;;;;;;6.15;2.80;;;;;;;-145.18;100.00;47324.59;4970876;28;20034;-71
2023/03/17 09:53:16;;;;;;;7.10;3.07;;;;;;;-145.18;100.00;47326.53;4971371;28;20030;-71
2023/03/17 09:55:44;;;;;;;5.67;2.97;;;;;;;-145.18;100.00;47328.50;4971752;28;20038;-71
2023/03/17 09:58:10;;;;;;;6.97;3.17;;;;;;;-145.18;100.00;47310.91;4978182;28;20034;-71
2023/03/17 10:00:36;;;;;;;6.97;3.30;;;;;;;-145.18;100.00;47303.09;4990749;28;20041;-71
2023/03/17 10:03:02;;;;;;;6.33;2.83;;;;;;;-145.18;100.00;47307.00;4988598;28;20046;-71
2023/03/17 10:05:30;;;;;;;6.30;3.03;;;;;;;-145.18;100.00;47316.78;4990503;28;20044;-71
2023/03/17 10:08:19;;;;;;;9.13;3.30;;;;;;;-145.18;100.00;47301.16;4990762;28;20031;-71
2023/03/17 10:10:50;;;;;;;7.47;3.23;;;;;;;-145.18;100.00;47283.56;4990724;28;20030;-71
2023/03/17 10:13:27;;;;;;;6.27;3.23;;;;;;;-145.18;100.00;47271.84;4990282;28;20030;-71
2023/03/17 10:15:59;;;;;;;7.07;3.10;;;;;;;-145.18;100.00;47297.22;4989846;28;20446;-71
2023/03/17 10:18:31;;;;;;;8.33;3.60;;;;;;;-145.18;100.00;47301.16;4990389;28;20042;-71
2023/03/17 10:21:04;;;;;;;7.63;3.83;;;;;;;-145.18;100.00;47310.91;4990450;28;20038;-70
2023/03/17 10:23:35;;;;;;;7.60;3.33;;;;;;;-145.18;100.00;47308.97;4989804;28;20510;-70
2023/03/17 10:26:21;;;;;;;7.37;3.17;;;;;;;-145.18;100.00;47287.47;4988614;28;20061;-71
2023/03/17 10:28:46;;;;;;;7.50;3.28;;;;;;;-145.18;100.00;47262.06;4989979;28;20030;-71
2023/03/17 10:31:17;;;;;;;7.47;3.20;;;;;;;-145.18;100.00;47273.78;4990424;28;20539;-71
2023/03/17 10:33:47;;;;;;;8.80;3.60;;;;;;;-145.18;100.00;47269.88;4972737;28;20032;-71
2023/03/17 10:36:30;;;;;;;9.37;3.53;;;;;;;-145.18;100.00;47265.97;4975287;28;20027;-71
2023/03/17 10:38:55;;;;;;;5.67;3.43;;;;;;;-145.18;100.00;47254.25;4978602;28;20031;-71
2023/03/17 10:41:22;;;;;;;7.80;3.77;;;;;;;-145.18;100.00;47291.38;4989655;28;20057;-71
2023/03/17 10:43:49;;;;;;;7.40;3.97;;;;;;;-145.18;100.00;47273.78;4989795;28;20038;-71
2023/03/17 10:46:24;;;;;;;9.30;3.37;;;;;;;-145.18;100.00;47277.69;4990304;28;20042;-71
2023/03/17 10:48:52;;;;;;;10.05;4.00;;;;;;;-145.18;100.00;47285.50;4988834;28;20380;-71
2023/03/17 10:51:39;;;;;;;6.20;3.40;;;;;;;-145.18;100.00;47279.66;4980715;28;20041;-71
2023/03/17 10:54:10;;;;;;;10.93;4.00;;;;;;;-145.18;100.00;47293.31;4989219;28;20042;-71
2023/03/17 10:56:38;;;;;;;12.00;3.77;;;;;;;-145.18;100.00;47285.50;4980197;28;20117;-71
2023/03/17 10:59:06;;;;;;;10.13;4.80;;;;;;;-145.18;100.00;47291.38;4968754;28;20046;-71
2023/03/17 11:01:38;;;;;;;7.90;3.40;;;;;;;-145.18;100.00;47275.75;4978365;28;20030;-71
2023/03/17 11:04:25;;;;;;;8.50;3.73;;;;;;;-145.18;100.00;47258.16;4991545;28;20411;-71
2023/03/17 11:06:51;;;;;;;7.23;3.90;;;;;;;-145.18;100.00;47264.03;4992463;28;20049;-71
2023/03/17 11:09:18;;;;;;;10.47;4.13;;;;;;;-145.18;100.00;47258.16;4992435;28;20041;-71
2023/03/17 11:11:45;;;;;;;8.03;4.03;;;;;;;-145.18;100.00;47254.25;4992610;28;20030;-71
2023/03/17 11:14:12;;;;;;;14.43;4.13;;;;;;;-145.18;100.00;47262.06;4992993;28;20034;-71